KFRGKBID

Guest
Details From KFRG - REPUBLIC
To KBID - Block Island State
Flight Number -
Tags generated
Created
Modified
Stats Distance 87 nm / 162 km
Max Altitude 0 ft / 0 m
Waypoints 3
Social Downloads 0
Likes 0
Share VATSIM

Download

Looking for another format? Having issues loading an existing format? Contact us
Advertisement - Login to hide

Notes

Basic altitude profile: - Ascent Rate: 2500ft/min - Ascent Speed: 250kts - Cruise Altitude: 35000ft - Cruise Speed: 420kts - Descent Rate: 1500ft/min - Descent Speed: 250kts Options: - Use NATs: yes - Use PACOTS: yes - Use low airways: yes - Use high airways: yes

Route

KFRG SEY KBID

ID Type Via Altitude Latitude Longitude Leg Dist Tot Dist Heading (true) Name
O KFRG APT - 0 ft / 0 m 40.72883˚ -73.41351˚ - 0 nm - REPUBLIC
SEY DME - 0 ft / 0 m 41.16744˚ -71.57609˚ 87 nm 87 nm 72° / 73° SANDY POINT VOR-DME
O KBID APT - 0 ft / 0 m 41.16814˚ -71.57761˚ 0 nm 87 nm 301° / 301° Block Island State

Altitude Profile

Advertisement - Login to hide

KFRG

Details ICAO KFRG
Name REPUBLIC
Region United States
Timezone America/New_York (UTC-5.0)
Stats Elevation 82 ft / 25 m (AMSL)
Location 40.728829° -73.413506°
Runways 2
Magnetic Variation 13.194° W

METAR

KFRG 160453Z AUTO 29005KT 10SM CLR M06/M08 A2990 RMK AO2 SLP126 T10561083 410171089

Decode

TAF

Not found

Departure Runways

ID Width Length Bearing (true) Bearing (mag) Surface Threshold Offset Overrun Length
01 150 ft / 46 m 5,525 ft / 1,684 m 359.19° 12.38° Asphalt 0 ft / 0 m 0 ft / 0 m
14 150 ft / 46 m 6,823 ft / 2,080 m 132.34° 145.53° Asphalt 660 ft / 201 m 0 ft / 0 m
19 150 ft / 46 m 5,525 ft / 1,684 m 179.19° 192.38° Asphalt 789 ft / 240 m 0 ft / 0 m
32 150 ft / 46 m 6,823 ft / 2,080 m 312.35° 325.54° Asphalt 0 ft / 0 m 0 ft / 0 m

KBID

Details ICAO KBID (BID)
Name Block Island State
Region United States
Timezone America/New_York (UTC-5.0)
Stats Elevation 108 ft / 33 m (AMSL)
Location 41.168139° -71.577612°
Runways 1
Magnetic Variation 14.135° W

METAR

KBID 160510Z AUTO 30014G23KT 7SM UP OVC013 M02/M03 A2982 RMK AO2 SNB0457E09 P0000 FZRANO

Decode

TAF

Not found

Destination Runways

ID Width Length Bearing (true) Bearing (mag) Surface Threshold Offset Overrun Length
10 98 ft / 30 m 2,504 ft / 763 m 83.74° 97.88° Asphalt 0 ft / 0 m 0 ft / 0 m
28 98 ft / 30 m 2,504 ft / 763 m 263.75° 277.89° Asphalt 0 ft / 0 m 0 ft / 0 m

Popular Alternatives